PWSweather.com
Personal Weather Stations
Station Observations

ChardChardGB

Lat: 50.877408, Lon: -2.94964741

Elevation: 341

Station Type: WS3083

http://www.merriott-astro.co.uk/weather/index.htm

High Low Average
Temperature 71.4°F21.9°C 55.0°F12.8°C 62.9°F17.2°C
Dew Point 61.4°F16.3°C 49.1°F9.5°C 53.3°F11.8°C
Winds 9.2 mph 14.8 kmh Calm Calm 4.0 mph SW6.4 kmh SW
Wind Gusts 14.5 mph23.3 kmh -- 6.0 mph9.7 kmh
Humidity 100% 47% 72%
Pressure 30.18 in1022.0 mb 30.01 in1016.3 mb -
Precipitation 0.01 in0.3 mm - -
Hour Temp Dew Point Humidity Winds Wind Gusts Pressure Precip Precip Rate Daily Precip Total
12:00 AM 61.0°F16.1°C 61.0°F16.1°C 100% 1.2 mph S1.9 kmh S 3.8 mph6.1 kmh 30.04 in1017.3 mb 0.00 in0.0 mm 0.00 in0.0 mm 0.00 in0.0 mm
12:10 AM 61.2°F16.2°C 61.2°F16.2°C 100% 2.0 mph SSW3.2 kmh SSW 3.8 mph6.1 kmh 30.03 in1016.9 mb 0.00 in0.0 mm 0.00 in0.0 mm 0.00 in0.0 mm
12:20 AM 61.3°F16.3°C 61.4°F16.3°C 100% 3.0 mph SSE4.8 kmh SSE 5.4 mph8.7 kmh 30.03 in1016.9 mb 0.00 in0.0 mm 0.00 in0.0 mm 0.00 in0.0 mm
12:30 AM 61.3°F16.3°C 61.4°F16.3°C 100% 1.4 mph SW2.3 kmh SW 4.5 mph7.2 kmh 30.02 in1016.6 mb 0.00 in0.0 mm 0.00 in0.0 mm 0.00 in0.0 mm
12:40 AM 61.3°F16.3°C 60.5°F15.8°C 97% 0.9 mph S1.4 kmh S 2.2 mph3.5 kmh 30.03 in1016.9 mb 0.00 in0.0 mm 0.00 in0.0 mm 0.00 in0.0 mm
12:50 AM 61.5°F16.4°C 60.7°F15.9°C 97% 1.9 mph W3.1 kmh W 3.8 mph6.1 kmh 30.03 in1016.9 mb 0.00 in0.0 mm 0.00 in0.0 mm 0.00 in0.0 mm
01:00 AM 61.5°F16.4°C 60.7°F15.9°C 97% 1.2 mph S1.9 kmh S 3.1 mph5.0 kmh 30.02 in1016.6 mb 0.00 in0.0 mm 0.00 in0.0 mm 0.00 in0.0 mm
01:10 AM 61.5°F16.4°C 60.4°F15.8°C 96% 1.9 mph SE3.1 kmh SE 4.5 mph7.2 kmh 30.02 in1016.6 mb 0.00 in0.0 mm 0.00 in0.0 mm 0.00 in0.0 mm
01:20 AM 61.5°F16.4°C 60.4°F15.8°C 96% 2.9 mph SSE4.7 kmh SSE 6.0 mph9.7 kmh 30.02 in1016.6 mb 0.00 in0.0 mm 0.00 in0.0 mm 0.00 in0.0 mm
01:30 AM 61.7°F16.5°C 60.3°F15.7°C 95% 3.2 mph SSW5.1 kmh SSW 5.4 mph8.7 kmh 30.02 in1016.6 mb 0.00 in0.0 mm 0.00 in0.0 mm 0.00 in0.0 mm
01:40 AM 61.7°F16.5°C 60.0°F15.6°C 94% 4.1 mph WSW6.6 kmh WSW 7.6 mph12.2 kmh 30.02 in1016.6 mb 0.00 in0.0 mm 0.00 in0.0 mm 0.00 in0.0 mm
01:50 AM 61.7°F16.5°C 60.0°F15.6°C 94% 3.0 mph WNW4.8 kmh WNW 6.0 mph9.7 kmh 30.02 in1016.6 mb 0.00 in0.0 mm 0.00 in0.0 mm 0.00 in0.0 mm
02:00 AM 61.7°F16.5°C 59.7°F15.4°C 93% 2.1 mph SW3.4 kmh SW 5.4 mph8.7 kmh 30.02 in1016.6 mb 0.00 in0.0 mm 0.00 in0.0 mm 0.00 in0.0 mm
02:10 AM 61.7°F16.5°C 59.7°F15.4°C 93% 2.0 mph WSW3.2 kmh WSW 6.0 mph9.7 kmh 30.02 in1016.6 mb 0.00 in0.0 mm 0.00 in0.0 mm 0.00 in0.0 mm
02:20 AM 61.7°F16.5°C 59.4°F15.2°C 92% 3.1 mph WNW5.0 kmh WNW 4.5 mph7.2 kmh 30.02 in1016.6 mb 0.00 in0.0 mm 0.00 in0.0 mm 0.00 in0.0 mm
02:30 AM 61.7°F16.5°C 59.4°F15.2°C 92% 2.0 mph WSW3.2 kmh WSW 6.0 mph9.7 kmh 30.01 in1016.3 mb 0.00 in0.0 mm 0.00 in0.0 mm 0.00 in0.0 mm
02:40 AM 61.7°F16.5°C 59.4°F15.2°C 92% 1.8 mph SW2.9 kmh SW 3.8 mph6.1 kmh 30.01 in1016.3 mb 0.00 in0.0 mm 0.00 in0.0 mm 0.00 in0.0 mm
02:50 AM 61.7°F16.5°C 59.1°F15.1°C 91% 0.7 mph S1.1 kmh S 3.1 mph5.0 kmh 30.01 in1016.3 mb 0.00 in0.0 mm 0.00 in0.0 mm 0.00 in0.0 mm
03:00 AM 61.5°F16.4°C 58.9°F14.9°C 91% 0.6 mph WSW1.0 kmh WSW 3.1 mph5.0 kmh 30.01 in1016.3 mb 0.00 in0.0 mm 0.00 in0.0 mm 0.00 in0.0 mm
03:10 AM 61.3°F16.3°C 58.7°F14.8°C 91% Calm Calm -- 30.01 in1016.3 mb 0.00 in0.0 mm 0.00 in0.0 mm 0.00 in0.0 mm
03:20 AM 61.2°F16.2°C 58.8°F14.9°C 92% 2.1 mph WSW3.4 kmh WSW 5.4 mph8.7 kmh 30.01 in1016.3 mb 0.00 in0.0 mm 0.00 in0.0 mm 0.00 in0.0 mm
03:30 AM 61.2°F16.2°C 58.8°F14.9°C 92% 3.1 mph W5.0 kmh W 3.8 mph6.1 kmh 30.01 in1016.3 mb 0.00 in0.0 mm 0.00 in0.0 mm 0.00 in0.0 mm
03:40 AM 61.2°F16.2°C 58.5°F14.7°C 91% 3.6 mph W5.8 kmh W 5.4 mph8.7 kmh 30.01 in1016.3 mb 0.00 in0.0 mm 0.00 in0.0 mm 0.00 in0.0 mm
03:50 AM 61.2°F16.2°C 58.2°F14.6°C 90% 5.8 mph WNW9.3 kmh WNW 8.3 mph13.4 kmh 30.01 in1016.3 mb 0.01 in0.3 mm 0.06 in1.5 mm 0.01 in0.3 mm
04:00 AM 61.0°F16.1°C 57.4°F14.1°C 88% 4.3 mph W6.9 kmh W 8.3 mph13.4 kmh 30.01 in1016.3 mb 0.01 in0.3 mm 0.00 in0.0 mm 0.01 in0.3 mm
04:10 AM 60.6°F15.9°C 56.4°F13.6°C 86% 4.0 mph WNW6.4 kmh WNW 8.3 mph13.4 kmh 30.01 in1016.3 mb 0.01 in0.3 mm 0.00 in0.0 mm 0.01 in0.3 mm
04:20 AM 60.3°F15.7°C 56.1°F13.4°C 86% 0.5 mph WNW0.8 kmh WNW 3.8 mph6.1 kmh 30.01 in1016.3 mb 0.01 in0.3 mm 0.00 in0.0 mm 0.01 in0.3 mm
04:30 AM 60.1°F15.6°C 55.9°F13.3°C 86% 3.1 mph W5.0 kmh W 6.9 mph11.1 kmh 30.02 in1016.6 mb 0.01 in0.3 mm 0.00 in0.0 mm 0.01 in0.3 mm
04:40 AM 59.9°F15.5°C 55.7°F13.2°C 86% 1.9 mph W3.1 kmh W 3.1 mph5.0 kmh 30.02 in1016.6 mb 0.01 in0.3 mm 0.00 in0.0 mm 0.01 in0.3 mm
04:50 AM 59.4°F15.2°C 54.9°F12.7°C 85% 0.2 mph W0.3 kmh W 1.6 mph2.6 kmh 30.02 in1016.6 mb 0.00 in0.0 mm 0.00 in0.0 mm 0.01 in0.3 mm
05:00 AM 59.0°F15.0°C 54.8°F12.7°C 86% Calm Calm -- 30.01 in1016.3 mb 0.00 in0.0 mm 0.00 in0.0 mm 0.01 in0.3 mm
05:10 AM 59.0°F15.0°C 55.1°F12.8°C 87% Calm Calm -- 30.02 in1016.6 mb 0.00 in0.0 mm 0.00 in0.0 mm 0.01 in0.3 mm
05:20 AM 59.2°F15.1°C 55.3°F12.9°C 87% Calm Calm -- 30.02 in1016.6 mb 0.00 in0.0 mm 0.00 in0.0 mm 0.01 in0.3 mm
05:30 AM 59.2°F15.1°C 55.3°F12.9°C 87% Calm Calm -- 30.02 in1016.6 mb 0.00 in0.0 mm 0.00 in0.0 mm 0.01 in0.3 mm
05:40 AM 59.5°F15.3°C 55.7°F13.2°C 87% Calm Calm -- 30.03 in1016.9 mb 0.00 in0.0 mm 0.00 in0.0 mm 0.01 in0.3 mm
05:50 AM 59.7°F15.4°C 55.9°F13.3°C 87% Calm Calm -- 30.03 in1016.9 mb 0.00 in0.0 mm 0.00 in0.0 mm 0.01 in0.3 mm
06:00 AM 59.9°F15.5°C 55.7°F13.2°C 86% Calm Calm -- 30.04 in1017.3 mb 0.00 in0.0 mm 0.00 in0.0 mm 0.01 in0.3 mm
06:10 AM 60.1°F15.6°C 55.9°F13.3°C 86% Calm Calm -- 30.03 in1016.9 mb 0.00 in0.0 mm 0.00 in0.0 mm 0.01 in0.3 mm
06:20 AM 60.1°F15.6°C 55.6°F13.1°C 85% Calm Calm -- 30.04 in1017.3 mb 0.00 in0.0 mm 0.00 in0.0 mm 0.01 in0.3 mm
06:30 AM 60.3°F15.7°C 55.7°F13.2°C 85% Calm Calm -- 30.03 in1016.9 mb 0.00 in0.0 mm 0.00 in0.0 mm 0.01 in0.3 mm
06:40 AM 61.0°F16.1°C 56.5°F13.6°C 85% Calm Calm -- 30.04 in1017.3 mb 0.00 in0.0 mm 0.00 in0.0 mm 0.01 in0.3 mm
06:50 AM 63.7°F17.6°C 58.1°F14.5°C 82% Calm Calm -- 30.04 in1017.3 mb 0.00 in0.0 mm 0.00 in0.0 mm 0.01 in0.3 mm
07:00 AM 68.2°F20.1°C 59.2°F15.1°C 73% Calm Calm -- 30.05 in1017.6 mb 0.00 in0.0 mm 0.00 in0.0 mm 0.01 in0.3 mm
07:10 AM 66.0°F18.9°C 56.4°F13.6°C 71% Calm Calm -- 30.05 in1017.6 mb 0.00 in0.0 mm 0.00 in0.0 mm 0.01 in0.3 mm
07:20 AM 66.4°F19.1°C 57.1°F13.9°C 72% Calm Calm -- 30.06 in1017.9 mb 0.00 in0.0 mm 0.00 in0.0 mm 0.01 in0.3 mm
07:30 AM 64.9°F18.3°C 54.9°F12.7°C 70% 3.7 mph WNW6.0 kmh WNW 8.3 mph13.4 kmh 30.05 in1017.6 mb 0.00 in0.0 mm 0.00 in0.0 mm 0.01 in0.3 mm
07:40 AM 62.6°F17.0°C 53.8°F12.1°C 73% 6.4 mph WNW10.3 kmh WNW 8.3 mph13.4 kmh 30.06 in1017.9 mb 0.00 in0.0 mm 0.00 in0.0 mm 0.01 in0.3 mm
07:50 AM 62.6°F17.0°C 54.6°F12.6°C 75% 3.5 mph WNW5.6 kmh WNW 6.9 mph11.1 kmh 30.06 in1017.9 mb 0.00 in0.0 mm 0.00 in0.0 mm 0.01 in0.3 mm
08:00 AM 62.6°F17.0°C 53.8°F12.1°C 73% 3.8 mph WNW6.1 kmh WNW 6.9 mph11.1 kmh 30.07 in1018.3 mb 0.00 in0.0 mm 0.00 in0.0 mm 0.01 in0.3 mm
08:10 AM 63.0°F17.2°C 54.2°F12.3°C 73% 3.0 mph WNW4.8 kmh WNW 5.4 mph8.7 kmh 30.06 in1017.9 mb 0.00 in0.0 mm 0.00 in0.0 mm 0.01 in0.3 mm
08:20 AM 63.1°F17.3°C 54.0°F12.2°C 72% 4.3 mph WNW6.9 kmh WNW 6.0 mph9.7 kmh 30.06 in1017.9 mb 0.00 in0.0 mm 0.00 in0.0 mm 0.01 in0.3 mm
08:30 AM 63.5°F17.5°C 52.4°F11.3°C 67% 3.3 mph NW5.3 kmh NW 4.5 mph7.2 kmh 30.07 in1018.3 mb 0.00 in0.0 mm 0.00 in0.0 mm 0.01 in0.3 mm
08:40 AM 63.1°F17.3°C 53.2°F11.8°C 70% 1.8 mph WNW2.9 kmh WNW 3.8 mph6.1 kmh 30.07 in1018.3 mb 0.00 in0.0 mm 0.00 in0.0 mm 0.01 in0.3 mm
08:50 AM 63.5°F17.5°C 51.5°F10.8°C 65% 1.3 mph NNW2.1 kmh NNW 3.8 mph6.1 kmh 30.07 in1018.3 mb 0.00 in0.0 mm 0.00 in0.0 mm 0.01 in0.3 mm
09:00 AM 63.5°F17.5°C 51.5°F10.8°C 65% 1.4 mph W2.3 kmh W 6.0 mph9.7 kmh 30.08 in1018.6 mb 0.00 in0.0 mm 0.00 in0.0 mm 0.01 in0.3 mm
09:10 AM 63.5°F17.5°C 51.1°F10.6°C 64% 1.1 mph NW1.8 kmh NW 6.0 mph9.7 kmh 30.08 in1018.6 mb 0.00 in0.0 mm 0.00 in0.0 mm 0.01 in0.3 mm
09:20 AM 64.0°F17.8°C 52.1°F11.2°C 65% 0.8 mph E1.3 kmh E 6.0 mph9.7 kmh 30.08 in1018.6 mb 0.00 in0.0 mm 0.00 in0.0 mm 0.01 in0.3 mm
09:30 AM 63.9°F17.7°C 51.0°F10.6°C 63% 3.6 mph WNW5.8 kmh WNW 7.6 mph12.2 kmh 30.08 in1018.6 mb 0.00 in0.0 mm 0.00 in0.0 mm 0.01 in0.3 mm
09:40 AM 64.4°F18.0°C 51.5°F10.8°C 63% 2.8 mph WNW4.5 kmh WNW 6.0 mph9.7 kmh 30.08 in1018.6 mb 0.00 in0.0 mm 0.00 in0.0 mm 0.01 in0.3 mm
09:50 AM 64.4°F18.0°C 51.5°F10.8°C 63% 1.0 mph W1.6 kmh W 4.5 mph7.2 kmh 30.08 in1018.6 mb 0.00 in0.0 mm 0.00 in0.0 mm 0.01 in0.3 mm
10:00 AM 63.7°F17.6°C 50.9°F10.5°C 63% 4.7 mph WNW7.6 kmh WNW 9.2 mph14.8 kmh 30.09 in1019.0 mb 0.00 in0.0 mm 0.00 in0.0 mm 0.01 in0.3 mm
10:10 AM 64.8°F18.2°C 51.9°F11.1°C 63% 1.1 mph NW1.8 kmh NW 6.0 mph9.7 kmh 30.09 in1019.0 mb 0.00 in0.0 mm 0.00 in0.0 mm 0.01 in0.3 mm
10:20 AM 64.0°F17.8°C 50.8°F10.4°C 62% 4.4 mph WSW7.1 kmh WSW 6.9 mph11.1 kmh 30.09 in1019.0 mb 0.00 in0.0 mm 0.00 in0.0 mm 0.01 in0.3 mm
10:30 AM 63.9°F17.7°C 51.0°F10.6°C 63% 5.9 mph W9.5 kmh W 7.6 mph12.2 kmh 30.09 in1019.0 mb 0.00 in0.0 mm 0.00 in0.0 mm 0.01 in0.3 mm
10:40 AM 64.9°F18.3°C 52.1°F11.2°C 63% 5.7 mph W9.2 kmh W 8.3 mph13.4 kmh 30.09 in1019.0 mb 0.00 in0.0 mm 0.00 in0.0 mm 0.01 in0.3 mm
10:50 AM 63.5°F17.5°C 50.3°F10.2°C 62% 8.3 mph WNW13.4 kmh WNW 13.6 mph21.9 kmh 30.09 in1019.0 mb 0.00 in0.0 mm 0.00 in0.0 mm 0.01 in0.3 mm
11:00 AM 62.8°F17.1°C 52.5°F11.4°C 69% 7.9 mph WSW12.7 kmh WSW 11.4 mph18.3 kmh 30.09 in1019.0 mb 0.00 in0.0 mm 0.00 in0.0 mm 0.01 in0.3 mm
11:10 AM 62.6°F17.0°C 52.3°F11.3°C 69% 8.5 mph W13.7 kmh W 10.7 mph17.2 kmh 30.10 in1019.3 mb 0.00 in0.0 mm 0.00 in0.0 mm 0.01 in0.3 mm
11:20 AM 64.0°F17.8°C 51.2°F10.7°C 63% 6.5 mph W10.5 kmh W 9.2 mph14.8 kmh 30.11 in1019.6 mb 0.00 in0.0 mm 0.00 in0.0 mm 0.01 in0.3 mm
11:30 AM 64.9°F18.3°C 51.2°F10.7°C 61% 7.1 mph WNW11.4 kmh WNW 9.8 mph15.8 kmh 30.10 in1019.3 mb 0.00 in0.0 mm 0.00 in0.0 mm 0.01 in0.3 mm
11:40 AM 64.4°F18.0°C 50.7°F10.4°C 61% 7.3 mph WNW11.7 kmh WNW 11.4 mph18.3 kmh 30.10 in1019.3 mb 0.00 in0.0 mm 0.00 in0.0 mm 0.01 in0.3 mm
11:50 AM 64.2°F17.9°C 50.1°F10.1°C 60% 8.3 mph NW13.4 kmh NW 9.8 mph15.8 kmh 30.11 in1019.6 mb 0.00 in0.0 mm 0.00 in0.0 mm 0.01 in0.3 mm
12:00 PM 65.7°F18.7°C 51.0°F10.6°C 59% 5.5 mph WNW8.9 kmh WNW 10.7 mph17.2 kmh 30.11 in1019.6 mb 0.00 in0.0 mm 0.00 in0.0 mm 0.01 in0.3 mm
12:10 PM 66.6°F19.2°C 51.3°F10.7°C 58% 4.6 mph W7.4 kmh W 10.7 mph17.2 kmh 30.10 in1019.3 mb 0.00 in0.0 mm 0.00 in0.0 mm 0.01 in0.3 mm
12:20 PM 65.8°F18.8°C 49.7°F9.8°C 56% 7.6 mph WNW12.2 kmh WNW 10.7 mph17.2 kmh 30.10 in1019.3 mb 0.00 in0.0 mm 0.00 in0.0 mm 0.01 in0.3 mm
12:30 PM 65.7°F18.7°C 49.6°F9.8°C 56% 7.5 mph W12.1 kmh W 9.8 mph15.8 kmh 30.10 in1019.3 mb 0.00 in0.0 mm 0.00 in0.0 mm 0.01 in0.3 mm
12:40 PM 65.7°F18.7°C 50.0°F10.0°C 57% 8.6 mph WNW13.8 kmh WNW 10.7 mph17.2 kmh 30.10 in1019.3 mb 0.00 in0.0 mm 0.00 in0.0 mm 0.01 in0.3 mm
12:50 PM 67.8°F19.9°C 51.1°F10.6°C 55% 7.1 mph WNW11.4 kmh WNW 8.3 mph13.4 kmh 30.11 in1019.6 mb 0.00 in0.0 mm 0.00 in0.0 mm 0.01 in0.3 mm
01:00 PM 68.5°F20.3°C 51.3°F10.7°C 54% 5.9 mph W9.5 kmh W 8.3 mph13.4 kmh 30.10 in1019.3 mb 0.00 in0.0 mm 0.00 in0.0 mm 0.01 in0.3 mm
01:10 PM 66.9°F19.4°C 50.2°F10.1°C 55% 6.4 mph W10.3 kmh W 8.3 mph13.4 kmh 30.10 in1019.3 mb 0.00 in0.0 mm 0.00 in0.0 mm 0.01 in0.3 mm
01:20 PM 66.2°F19.0°C 49.1°F9.5°C 54% 7.8 mph W12.6 kmh W 12.1 mph19.5 kmh 30.11 in1019.6 mb 0.00 in0.0 mm 0.00 in0.0 mm 0.01 in0.3 mm
01:30 PM 67.1°F19.5°C 51.4°F10.8°C 57% 5.4 mph NW8.7 kmh NW 8.3 mph13.4 kmh 30.10 in1019.3 mb 0.00 in0.0 mm 0.00 in0.0 mm 0.01 in0.3 mm
01:40 PM 69.6°F20.9°C 52.3°F11.3°C 54% 6.5 mph W10.5 kmh W 11.4 mph18.3 kmh 30.10 in1019.3 mb 0.00 in0.0 mm 0.00 in0.0 mm 0.01 in0.3 mm
01:50 PM 68.5°F20.3°C 50.8°F10.4°C 53% 7.9 mph W12.7 kmh W 11.4 mph18.3 kmh 30.11 in1019.6 mb 0.00 in0.0 mm 0.00 in0.0 mm 0.01 in0.3 mm
02:00 PM 67.5°F19.7°C 49.2°F9.6°C 52% 8.4 mph WNW13.5 kmh WNW 11.4 mph18.3 kmh 30.11 in1019.6 mb 0.00 in0.0 mm 0.00 in0.0 mm 0.01 in0.3 mm
02:10 PM 67.3°F19.6°C 49.1°F9.5°C 52% 8.0 mph W12.9 kmh W 12.1 mph19.5 kmh 30.10 in1019.3 mb 0.00 in0.0 mm 0.00 in0.0 mm 0.01 in0.3 mm
02:20 PM 67.5°F19.7°C 49.8°F9.9°C 53% 8.2 mph W13.2 kmh W 12.1 mph19.5 kmh 30.11 in1019.6 mb 0.00 in0.0 mm 0.00 in0.0 mm 0.01 in0.3 mm
02:30 PM 68.5°F20.3°C 51.3°F10.7°C 54% 7.0 mph W11.3 kmh W 9.8 mph15.8 kmh 30.11 in1019.6 mb 0.00 in0.0 mm 0.00 in0.0 mm 0.01 in0.3 mm
02:40 PM 69.4°F20.8°C 51.1°F10.6°C 52% 8.6 mph W13.8 kmh W 13.0 mph20.9 kmh 30.11 in1019.6 mb 0.00 in0.0 mm 0.00 in0.0 mm 0.01 in0.3 mm
02:50 PM 70.2°F21.2°C 50.7°F10.4°C 50% 7.3 mph WNW11.7 kmh WNW 11.4 mph18.3 kmh 30.11 in1019.6 mb 0.00 in0.0 mm 0.00 in0.0 mm 0.01 in0.3 mm
03:00 PM 70.9°F21.6°C 51.3°F10.7°C 50% 6.3 mph WSW10.1 kmh WSW 9.8 mph15.8 kmh 30.11 in1019.6 mb 0.00 in0.0 mm 0.00 in0.0 mm 0.01 in0.3 mm
03:10 PM 70.2°F21.2°C 50.1°F10.1°C 49% 8.4 mph W13.5 kmh W 11.4 mph18.3 kmh 30.10 in1019.3 mb 0.00 in0.0 mm 0.00 in0.0 mm 0.01 in0.3 mm
03:20 PM 70.5°F21.4°C 49.3°F9.6°C 47% 5.2 mph NW8.4 kmh NW 11.4 mph18.3 kmh 30.10 in1019.3 mb 0.00 in0.0 mm 0.00 in0.0 mm 0.01 in0.3 mm
03:30 PM 69.3°F20.7°C 49.8°F9.9°C 50% 5.3 mph WNW8.5 kmh WNW 11.4 mph18.3 kmh 30.11 in1019.6 mb 0.00 in0.0 mm 0.00 in0.0 mm 0.01 in0.3 mm
03:40 PM 68.7°F20.4°C 50.4°F10.2°C 52% 5.0 mph WSW8.0 kmh WSW 9.8 mph15.8 kmh 30.11 in1019.6 mb 0.00 in0.0 mm 0.00 in0.0 mm 0.01 in0.3 mm
03:50 PM 69.3°F20.7°C 50.9°F10.5°C 52% 6.1 mph W9.8 kmh W 9.2 mph14.8 kmh 30.11 in1019.6 mb 0.00 in0.0 mm 0.00 in0.0 mm 0.01 in0.3 mm
04:00 PM 71.4°F21.9°C 51.8°F11.0°C 50% 5.7 mph W9.2 kmh W 9.8 mph15.8 kmh 30.11 in1019.6 mb 0.00 in0.0 mm 0.00 in0.0 mm 0.01 in0.3 mm
04:10 PM 69.1°F20.6°C 50.7°F10.4°C 52% 9.2 mph W14.8 kmh W 14.5 mph23.3 kmh 30.12 in1020.0 mb 0.00 in0.0 mm 0.00 in0.0 mm 0.01 in0.3 mm
04:20 PM 68.5°F20.3°C 49.2°F9.6°C 50% 7.6 mph W12.2 kmh W 11.4 mph18.3 kmh 30.12 in1020.0 mb 0.00 in0.0 mm 0.00 in0.0 mm 0.01 in0.3 mm
04:30 PM 68.4°F20.2°C 51.6°F10.9°C 55% 6.4 mph W10.3 kmh W 9.8 mph15.8 kmh 30.12 in1020.0 mb 0.00 in0.0 mm 0.00 in0.0 mm 0.01 in0.3 mm
04:40 PM 68.0°F20.0°C 50.8°F10.4°C 54% 6.8 mph WNW10.9 kmh WNW 10.7 mph17.2 kmh 30.11 in1019.6 mb 0.00 in0.0 mm 0.00 in0.0 mm 0.01 in0.3 mm
04:50 PM 68.7°F20.4°C 50.9°F10.5°C 53% 7.6 mph WNW12.2 kmh WNW 9.8 mph15.8 kmh 30.12 in1020.0 mb 0.00 in0.0 mm 0.00 in0.0 mm 0.01 in0.3 mm
05:00 PM 68.7°F20.4°C 50.4°F10.2°C 52% 8.6 mph W13.8 kmh W 9.8 mph15.8 kmh 30.12 in1020.0 mb 0.00 in0.0 mm 0.00 in0.0 mm 0.01 in0.3 mm
05:10 PM 66.4°F19.1°C 50.2°F10.1°C 56% 6.6 mph WNW10.6 kmh WNW 9.8 mph15.8 kmh 30.12 in1020.0 mb 0.00 in0.0 mm 0.00 in0.0 mm 0.01 in0.3 mm
05:20 PM 68.0°F20.0°C 51.3°F10.7°C 55% 7.6 mph WNW12.2 kmh WNW 9.2 mph14.8 kmh 30.12 in1020.0 mb 0.00 in0.0 mm 0.00 in0.0 mm 0.01 in0.3 mm
05:30 PM 69.4°F20.8°C 51.6°F10.9°C 53% 7.3 mph NW11.7 kmh NW 10.7 mph17.2 kmh 30.12 in1020.0 mb 0.00 in0.0 mm 0.00 in0.0 mm 0.01 in0.3 mm
05:40 PM 66.9°F19.4°C 50.2°F10.1°C 55% 7.8 mph WSW12.6 kmh WSW 10.7 mph17.2 kmh 30.12 in1020.0 mb 0.00 in0.0 mm 0.00 in0.0 mm 0.01 in0.3 mm
05:50 PM 67.1°F19.5°C 50.4°F10.2°C 55% 8.5 mph W13.7 kmh W 10.7 mph17.2 kmh 30.12 in1020.0 mb 0.00 in0.0 mm 0.00 in0.0 mm 0.01 in0.3 mm
06:00 PM 65.7°F18.7°C 50.5°F10.3°C 58% 7.4 mph W11.9 kmh W 9.8 mph15.8 kmh 30.13 in1020.3 mb 0.00 in0.0 mm 0.00 in0.0 mm 0.01 in0.3 mm
06:10 PM 65.3°F18.5°C 50.2°F10.1°C 58% 6.7 mph W10.8 kmh W 9.2 mph14.8 kmh 30.13 in1020.3 mb 0.00 in0.0 mm 0.00 in0.0 mm 0.01 in0.3 mm
06:20 PM 65.1°F18.4°C 51.4°F10.8°C 61% 5.0 mph W8.0 kmh W 8.3 mph13.4 kmh 30.13 in1020.3 mb 0.00 in0.0 mm 0.00 in0.0 mm 0.01 in0.3 mm
06:30 PM 65.5°F18.6°C 51.2°F10.7°C 60% 5.9 mph WSW9.5 kmh WSW 8.3 mph13.4 kmh 30.14 in1020.7 mb 0.00 in0.0 mm 0.00 in0.0 mm 0.01 in0.3 mm
06:40 PM 65.3°F18.5°C 51.1°F10.6°C 60% 5.8 mph WSW9.3 kmh WSW 9.2 mph14.8 kmh 30.14 in1020.7 mb 0.00 in0.0 mm 0.00 in0.0 mm 0.01 in0.3 mm
06:50 PM 64.9°F18.3°C 50.7°F10.4°C 60% 6.2 mph W10.0 kmh W 7.6 mph12.2 kmh 30.14 in1020.7 mb 0.00 in0.0 mm 0.00 in0.0 mm 0.01 in0.3 mm
07:00 PM 64.0°F17.8°C 50.3°F10.2°C 61% 5.2 mph W8.4 kmh W 7.6 mph12.2 kmh 30.14 in1020.7 mb 0.00 in0.0 mm 0.00 in0.0 mm 0.01 in0.3 mm
07:10 PM 62.6°F17.0°C 51.5°F10.8°C 67% 2.6 mph W4.2 kmh W 4.5 mph7.2 kmh 30.14 in1020.7 mb 0.00 in0.0 mm 0.00 in0.0 mm 0.01 in0.3 mm
07:20 PM 61.7°F16.5°C 51.4°F10.8°C 69% 2.1 mph WNW3.4 kmh WNW 3.8 mph6.1 kmh 30.14 in1020.7 mb 0.00 in0.0 mm 0.00 in0.0 mm 0.01 in0.3 mm
07:30 PM 61.0°F16.1°C 51.1°F10.6°C 70% 2.6 mph WNW4.2 kmh WNW 4.5 mph7.2 kmh 30.15 in1021.0 mb 0.00 in0.0 mm 0.00 in0.0 mm 0.01 in0.3 mm
07:40 PM 60.4°F15.8°C 50.6°F10.3°C 70% Calm Calm -- 30.15 in1021.0 mb 0.00 in0.0 mm 0.00 in0.0 mm 0.01 in0.3 mm
07:50 PM 59.9°F15.5°C 50.5°F10.3°C 71% Calm Calm -- 30.16 in1021.3 mb 0.00 in0.0 mm 0.00 in0.0 mm 0.01 in0.3 mm
08:00 PM 59.5°F15.3°C 50.5°F10.3°C 72% 2.7 mph WNW4.3 kmh WNW 6.0 mph9.7 kmh 30.15 in1021.0 mb 0.00 in0.0 mm 0.00 in0.0 mm 0.01 in0.3 mm
08:10 PM 59.2°F15.1°C 50.5°F10.3°C 73% 5.1 mph W8.2 kmh W 9.2 mph14.8 kmh 30.16 in1021.3 mb 0.00 in0.0 mm 0.00 in0.0 mm 0.01 in0.3 mm
08:20 PM 58.8°F14.9°C 50.6°F10.3°C 74% 4.2 mph W6.8 kmh W 6.9 mph11.1 kmh 30.16 in1021.3 mb 0.00 in0.0 mm 0.00 in0.0 mm 0.01 in0.3 mm
08:30 PM 58.6°F14.8°C 50.8°F10.4°C 75% 5.8 mph W9.3 kmh W 8.3 mph13.4 kmh 30.17 in1021.7 mb 0.00 in0.0 mm 0.00 in0.0 mm 0.01 in0.3 mm
08:40 PM 58.5°F14.7°C 50.6°F10.3°C 75% 4.7 mph W7.6 kmh W 7.6 mph12.2 kmh 30.16 in1021.3 mb 0.00 in0.0 mm 0.00 in0.0 mm 0.01 in0.3 mm
08:50 PM 58.3°F14.6°C 50.8°F10.4°C 76% 5.8 mph W9.3 kmh W 7.6 mph12.2 kmh 30.16 in1021.3 mb 0.00 in0.0 mm 0.00 in0.0 mm 0.01 in0.3 mm
09:00 PM 58.3°F14.6°C 51.1°F10.6°C 77% 7.3 mph W11.7 kmh W 9.8 mph15.8 kmh 30.16 in1021.3 mb 0.00 in0.0 mm 0.00 in0.0 mm 0.01 in0.3 mm
09:10 PM 58.1°F14.5°C 51.3°F10.7°C 78% 6.4 mph WNW10.3 kmh WNW 7.6 mph12.2 kmh 30.16 in1021.3 mb 0.00 in0.0 mm 0.00 in0.0 mm 0.01 in0.3 mm
09:20 PM 57.9°F14.4°C 51.1°F10.6°C 78% 5.8 mph W9.3 kmh W 9.2 mph14.8 kmh 30.16 in1021.3 mb 0.00 in0.0 mm 0.00 in0.0 mm 0.01 in0.3 mm
09:30 PM 57.6°F14.2°C 50.8°F10.4°C 78% 3.2 mph NW5.1 kmh NW 6.0 mph9.7 kmh 30.17 in1021.7 mb 0.00 in0.0 mm 0.00 in0.0 mm 0.01 in0.3 mm
09:40 PM 57.2°F14.0°C 50.8°F10.4°C 79% 1.9 mph W3.1 kmh W 3.8 mph6.1 kmh 30.18 in1022.0 mb 0.00 in0.0 mm 0.00 in0.0 mm 0.01 in0.3 mm
09:50 PM 56.7°F13.7°C 50.6°F10.3°C 80% 2.4 mph S3.9 kmh S 4.5 mph7.2 kmh 30.18 in1022.0 mb 0.00 in0.0 mm 0.00 in0.0 mm 0.01 in0.3 mm
10:00 PM 56.1°F13.4°C 50.0°F10.0°C 80% 0.7 mph ENE1.1 kmh ENE 1.6 mph2.6 kmh 30.17 in1021.7 mb 0.00 in0.0 mm 0.00 in0.0 mm 0.01 in0.3 mm
10:10 PM 55.6°F13.1°C 49.9°F9.9°C 81% Calm Calm -- 30.17 in1021.7 mb 0.00 in0.0 mm 0.00 in0.0 mm 0.01 in0.3 mm
10:20 PM 55.6°F13.1°C 50.2°F10.1°C 82% 1.5 mph SSE2.4 kmh SSE 2.2 mph3.5 kmh 30.17 in1021.7 mb 0.00 in0.0 mm 0.00 in0.0 mm 0.01 in0.3 mm
10:30 PM 55.4°F13.0°C 50.0°F10.0°C 82% 1.5 mph SSW2.4 kmh SSW 2.2 mph3.5 kmh 30.17 in1021.7 mb 0.00 in0.0 mm 0.00 in0.0 mm 0.01 in0.3 mm
10:40 PM 55.2°F12.9°C 50.2°F10.1°C 83% 1.2 mph S1.9 kmh S 2.2 mph3.5 kmh 30.18 in1022.0 mb 0.00 in0.0 mm 0.00 in0.0 mm 0.01 in0.3 mm
10:50 PM 55.0°F12.8°C 50.0°F10.0°C 83% 0.8 mph S1.3 kmh S 2.2 mph3.5 kmh 30.18 in1022.0 mb 0.00 in0.0 mm 0.00 in0.0 mm 0.01 in0.3 mm
11:00 PM 55.0°F12.8°C 50.3°F10.2°C 84% 1.5 mph WSW2.4 kmh WSW 3.1 mph5.0 kmh 30.18 in1022.0 mb 0.00 in0.0 mm 0.00 in0.0 mm 0.01 in0.3 mm
11:10 PM 55.2°F12.9°C 50.8°F10.4°C 85% 2.1 mph W3.4 kmh W 3.1 mph5.0 kmh 30.18 in1022.0 mb 0.00 in0.0 mm 0.00 in0.0 mm 0.01 in0.3 mm
11:20 PM 55.6°F13.1°C 51.2°F10.7°C 85% 3.3 mph W5.3 kmh W 5.4 mph8.7 kmh 30.17 in1021.7 mb 0.00 in0.0 mm 0.00 in0.0 mm 0.01 in0.3 mm
11:30 PM 55.8°F13.2°C 51.6°F10.9°C 86% 3.1 mph W5.0 kmh W 5.4 mph8.7 kmh 30.18 in1022.0 mb 0.00 in0.0 mm 0.00 in0.0 mm 0.01 in0.3 mm
11:40 PM 55.9°F13.3°C 51.8°F11.0°C 86% 3.4 mph WNW5.5 kmh WNW 4.5 mph7.2 kmh 30.18 in1022.0 mb 0.00 in0.0 mm 0.00 in0.0 mm 0.01 in0.3 mm
11:50 PM 55.4°F13.0°C 51.0°F10.6°C 85% 0.7 mph W1.1 kmh W 3.1 mph5.0 kmh 30.18 in1022.0 mb 0.00 in0.0 mm 0.00 in0.0 mm 0.01 in0.3 mm